GBYD/BJL METAR and TAF weather

Enter ICAO airport designator
Station Type Date Time Source
GBYD METAR 2018/07/21 03:00 UTC NOAA

GBYD 210300Z 29007KT 9999 SCT011 26/24 Q1012


Station Type Date Time Source
GBYD Decoded METAR 2018/07/21 03:00 UTC NOAA

Banjul / Yundum, Gambia, The (GBYD) 13-21N 016-48W 36M
Jul 20, 2018 - 11:00 PM EDT / 2018.07.21 0300 UTC
Wind: from the WNW (290 degrees) at 8 MPH (7 KT):0
Visibility: greater than 7 mile(s):0
Sky conditions: partly cloudy
Temperature: 78 F (26 C)
Dew Point: 75 F (24 C)
Relative Humidity: 88%
Pressure (altimeter): 29.88 in. Hg (1012 hPa)
ob: GBYD 210300Z 29007KT 9999 SCT011 26/24 Q1012
cycle: 3

Station Type Date Time Source
GBYD TAF 2018/07/20 18:27 UTC NOAA

TAF TAF GBYD 201730Z 2018/2124 26006KT 9999 SCT012
TEMPO 2019/2023 4500 TSRA BKN010 FEW020CB


Example: see airport list